createdAt,value
2018-12-27T00:01:01.800Z,5.83
2018-12-27T00:02:07.761Z,5.73
2018-12-27T00:03:13.670Z,5.68
2018-12-27T00:04:19.568Z,5.72
2018-12-27T00:05:25.266Z,5.62
2018-12-27T00:06:31.206Z,5.54
2018-12-27T00:07:37.154Z,5.51
2018-12-27T00:08:43.088Z,5.43
2018-12-27T00:09:49.007Z,5.50
2018-12-27T00:10:54.958Z,5.69
2018-12-27T00:12:00.883Z,5.78
2018-12-27T00:13:06.582Z,5.66
2018-12-27T00:14:12.484Z,5.76
2018-12-27T00:15:18.466Z,5.87
2018-12-27T00:16:24.416Z,5.61
2018-12-27T00:17:30.355Z,5.51
2018-12-27T00:18:36.297Z,5.48
2018-12-27T00:19:42.274Z,5.72
2018-12-27T00:20:48.211Z,5.75
2018-12-27T00:21:54.132Z,5.65
2018-12-27T00:23:00.061Z,5.72
2018-12-27T00:24:05.989Z,5.83
2018-12-27T00:25:11.532Z,5.96
2018-12-27T00:26:17.498Z,5.91
2018-12-27T00:27:23.533Z,5.89
2018-12-27T00:28:29.503Z,5.88
2018-12-27T00:29:35.443Z,5.78
2018-12-27T00:30:41.554Z,5.59
2018-12-27T00:31:47.629Z,5.61
2018-12-27T00:32:53.743Z,5.56
2018-12-27T00:33:59.811Z,5.68
2018-12-27T00:35:05.922Z,5.52
2018-12-27T00:36:12.059Z,5.49
2018-12-27T00:37:18.448Z,5.54
2018-12-27T00:38:24.502Z,5.41
2018-12-27T00:39:30.574Z,5.29
2018-12-27T00:40:36.668Z,5.20
2018-12-27T00:41:42.768Z,5.23
2018-12-27T00:42:48.878Z,5.33
2018-12-27T00:43:54.911Z,5.39
2018-12-27T00:45:00.992Z,5.30
2018-12-27T00:46:07.046Z,5.45
2018-12-27T00:47:13.084Z,5.53
2018-12-27T00:48:19.124Z,5.46
2018-12-27T00:49:26.264Z,5.47
2018-12-27T00:50:32.262Z,5.61
2018-12-27T00:51:38.271Z,5.61
2018-12-27T00:52:44.389Z,5.66
2018-12-27T00:53:50.452Z,5.55
2018-12-27T00:54:56.518Z,5.63
2018-12-27T00:56:02.610Z,5.59
2018-12-27T00:57:08.664Z,5.61
2018-12-27T00:58:14.717Z,5.84
2018-12-27T00:59:20.768Z,5.90
2018-12-27T01:00:27.397Z,5.80
2018-12-27T01:01:34.297Z,5.66
2018-12-27T01:02:40.470Z,5.72
2018-12-27T01:03:46.526Z,5.60
2018-12-27T01:04:52.617Z,5.54
2018-12-27T01:05:58.693Z,5.48
2018-12-27T01:07:04.705Z,5.69
2018-12-27T01:08:10.761Z,5.70
2018-12-27T01:09:16.807Z,5.81
2018-12-27T01:10:22.988Z,5.80
2018-12-27T01:11:29.111Z,5.52
2018-12-27T01:12:35.157Z,5.41
2018-12-27T01:13:41.261Z,5.56
2018-12-27T01:14:47.317Z,5.53
2018-12-27T01:15:53.381Z,5.25
2018-12-27T01:16:59.508Z,5.27
2018-12-27T01:18:05.585Z,5.26
2018-12-27T01:19:11.673Z,5.49
2018-12-27T01:20:17.716Z,5.38
2018-12-27T01:21:23.756Z,5.30
2018-12-27T01:22:29.777Z,5.26
2018-12-27T01:23:35.800Z,5.38
2018-12-27T01:24:41.792Z,5.54
2018-12-27T01:25:47.797Z,5.38
2018-12-27T01:26:53.904Z,5.50
2018-12-27T01:27:59.963Z,5.68
2018-12-27T01:29:06.066Z,5.66
2018-12-27T01:30:12.162Z,5.60
2018-12-27T01:31:18.234Z,5.51
2018-12-27T01:32:24.337Z,5.55
2018-12-27T01:33:30.475Z,5.35
2018-12-27T01:34:36.536Z,5.37
2018-12-27T01:35:42.557Z,5.45
2018-12-27T01:36:48.589Z,5.52
2018-12-27T01:37:54.693Z,5.53
2018-12-27T01:39:00.736Z,5.33
2018-12-27T01:40:06.753Z,5.36
2018-12-27T01:41:12.841Z,5.47
2018-12-27T01:42:18.899Z,5.42
2018-12-27T01:43:24.965Z,5.52
2018-12-27T01:44:31.017Z,5.39
2018-12-27T01:45:37.028Z,5.64
2018-12-27T01:46:43.119Z,5.57
2018-12-27T01:47:49.156Z,5.52
2018-12-27T01:48:55.222Z,5.58
2018-12-27T01:50:01.335Z,5.66
2018-12-27T01:51:07.732Z,5.46
2018-12-27T01:52:13.808Z,5.42
2018-12-27T01:53:19.858Z,5.38
2018-12-27T01:54:25.933Z,5.43
2018-12-27T01:55:31.983Z,5.53
2018-12-27T01:56:38.048Z,5.38
2018-12-27T01:57:44.134Z,5.32
2018-12-27T01:58:50.231Z,5.31
2018-12-27T01:59:56.289Z,5.31
2018-12-27T02:01:02.303Z,5.28
2018-12-27T02:02:07.338Z,5.55
2018-12-27T02:03:12.358Z,5.56
2018-12-27T02:04:17.396Z,5.47
2018-12-27T02:05:23.432Z,5.54
2018-12-27T02:06:29.533Z,5.60
2018-12-27T02:07:35.601Z,5.68
2018-12-27T02:08:41.688Z,5.58
2018-12-27T02:09:47.714Z,5.58
2018-12-27T02:10:53.739Z,5.54
2018-12-27T02:11:59.737Z,5.61
2018-12-27T02:13:05.753Z,5.75
2018-12-27T02:14:11.813Z,5.67
2018-12-27T02:15:17.849Z,5.60
2018-12-27T02:16:23.873Z,5.56
2018-12-27T02:17:29.960Z,5.55
2018-12-27T02:18:35.977Z,5.52
2018-12-27T02:19:42.099Z,5.60
2018-12-27T02:20:48.184Z,5.64
2018-12-27T02:21:54.333Z,5.60
2018-12-27T02:23:00.385Z,5.48
2018-12-27T02:24:06.499Z,5.58
2018-12-27T02:25:12.605Z,5.66
2018-12-27T02:26:18.669Z,5.44
2018-12-27T02:27:24.720Z,5.44
2018-12-27T02:28:30.792Z,5.37
2018-12-27T02:29:36.874Z,5.43
2018-12-27T02:30:42.945Z,5.32
2018-12-27T02:31:49.026Z,5.52
2018-12-27T02:32:55.085Z,5.54
2018-12-27T02:34:01.165Z,5.45
2018-12-27T02:35:07.249Z,5.33
2018-12-27T02:36:13.435Z,5.26
2018-12-27T02:37:19.495Z,5.42
2018-12-27T02:38:25.580Z,5.41
2018-12-27T02:39:31.677Z,5.51
2018-12-27T02:40:37.759Z,5.42
2018-12-27T02:41:43.847Z,5.31
2018-12-27T02:42:49.906Z,5.49
2018-12-27T02:43:55.996Z,5.63
2018-12-27T02:45:02.052Z,5.49
2018-12-27T02:46:08.126Z,5.51
2018-12-27T02:47:14.273Z,5.60
2018-12-27T02:48:20.336Z,5.48
2018-12-27T02:49:26.755Z,5.49
2018-12-27T02:50:32.877Z,5.55
2018-12-27T02:51:38.902Z,5.57
2018-12-27T02:52:45.119Z,5.67
2018-12-27T02:53:51.149Z,5.56
2018-12-27T02:54:57.235Z,5.43
2018-12-27T02:56:03.288Z,5.40
2018-12-27T02:57:09.450Z,5.43
2018-12-27T02:58:15.480Z,5.61
2018-12-27T02:59:21.554Z,5.56
2018-12-27T03:00:27.643Z,5.33
2018-12-27T03:01:33.747Z,5.41
2018-12-27T03:02:39.780Z,5.40
2018-12-27T03:03:45.817Z,5.36
2018-12-27T03:04:51.918Z,5.28
2018-12-27T03:05:57.939Z,5.21
2018-12-27T03:07:04.000Z,5.20
2018-12-27T03:08:10.066Z,5.24
2018-12-27T03:09:16.147Z,5.22
2018-12-27T03:10:22.264Z,5.33
2018-12-27T03:11:28.325Z,5.27
2018-12-27T03:12:34.338Z,5.32
2018-12-27T03:13:40.503Z,5.26
2018-12-27T03:14:46.568Z,5.31
2018-12-27T03:15:52.613Z,5.50
2018-12-27T03:16:58.641Z,5.62
2018-12-27T03:18:04.862Z,5.69
2018-12-27T03:19:10.516Z,5.83
2018-12-27T03:20:16.578Z,5.87
2018-12-27T03:21:22.633Z,5.83
2018-12-27T03:22:28.713Z,5.70
2018-12-27T03:23:34.757Z,5.66
2018-12-27T03:24:40.841Z,5.67
2018-12-27T03:25:46.901Z,5.60
2018-12-27T03:26:52.983Z,5.67
2018-12-27T03:27:59.092Z,5.56
2018-12-27T03:29:05.148Z,5.37
2018-12-27T03:30:11.226Z,5.45
2018-12-27T03:31:17.281Z,5.61
2018-12-27T03:32:23.357Z,5.44
2018-12-27T03:33:29.404Z,5.56
2018-12-27T03:34:35.545Z,5.45
2018-12-27T03:35:41.604Z,5.51
2018-12-27T03:36:47.684Z,5.38
2018-12-27T03:37:53.733Z,5.32
2018-12-27T03:38:59.836Z,5.46
2018-12-27T03:40:06.012Z,5.49
2018-12-27T03:41:12.105Z,5.39
2018-12-27T03:42:18.171Z,5.41
2018-12-27T03:43:24.224Z,5.63
2018-12-27T03:44:30.306Z,5.56
2018-12-27T03:45:36.417Z,5.63
2018-12-27T03:46:42.480Z,5.78
2018-12-27T03:47:48.547Z,5.80
2018-12-27T03:48:54.634Z,5.44
2018-12-27T03:50:00.774Z,5.58
2018-12-27T03:51:06.847Z,5.63
2018-12-27T03:52:12.903Z,5.60
2018-12-27T03:53:18.960Z,5.49
2018-12-27T03:54:25.041Z,5.29
2018-12-27T03:55:31.132Z,5.39
2018-12-27T03:56:37.208Z,5.27
2018-12-27T03:57:43.262Z,5.20
2018-12-27T03:58:49.286Z,5.23
2018-12-27T03:59:55.356Z,5.21
2018-12-27T04:01:01.378Z,5.17
2018-12-27T04:02:07.417Z,5.31
2018-12-27T04:03:13.466Z,5.36
2018-12-27T04:04:19.501Z,5.29
2018-12-27T04:05:25.553Z,5.20
2018-12-27T04:06:31.602Z,5.21
2018-12-27T04:07:37.666Z,5.17
2018-12-27T04:08:43.679Z,5.16
2018-12-27T04:09:49.679Z,5.31
2018-12-27T04:10:55.712Z,5.27
2018-12-27T04:12:01.770Z,5.36
2018-12-27T04:13:07.798Z,5.51
2018-12-27T04:14:13.844Z,5.77
2018-12-27T04:15:19.789Z,5.85
2018-12-27T04:16:25.711Z,5.91
2018-12-27T04:17:31.601Z,5.89
2018-12-27T04:18:37.517Z,5.90
2018-12-27T04:19:43.450Z,5.91
2018-12-27T04:20:49.443Z,5.92
2018-12-27T04:21:55.089Z,5.91
2018-12-27T04:23:00.992Z,5.74
2018-12-27T04:24:06.545Z,5.69
2018-12-27T04:25:11.846Z,5.75
2018-12-27T04:26:17.647Z,5.72
2018-12-27T04:27:23.626Z,5.78
2018-12-27T04:28:29.528Z,5.56
2018-12-27T04:29:35.452Z,5.59
2018-12-27T04:30:40.722Z,5.89
2018-12-27T04:31:45.951Z,5.69
2018-12-27T04:32:51.197Z,5.77
2018-12-27T04:33:56.470Z,5.82
2018-12-27T04:35:01.713Z,5.76
2018-12-27T04:36:06.958Z,5.64
2018-12-27T04:37:12.146Z,5.53
2018-12-27T04:38:18.090Z,5.55
2018-12-27T04:39:24.606Z,5.61
2018-12-27T04:40:30.568Z,5.57
2018-12-27T04:41:35.781Z,5.51
2018-12-27T04:42:40.988Z,5.51
2018-12-27T04:43:46.204Z,5.63
2018-12-27T04:44:52.125Z,5.62
2018-12-27T04:45:58.079Z,5.76
2018-12-27T04:47:04.037Z,5.76
2018-12-27T04:48:09.987Z,5.94
2018-12-27T04:49:15.880Z,5.99
2018-12-27T04:50:21.826Z,5.78
2018-12-27T04:51:27.753Z,5.55
2018-12-27T04:52:33.677Z,5.55
2018-12-27T04:53:39.671Z,5.76
2018-12-27T04:54:45.568Z,5.88
2018-12-27T04:55:51.557Z,6.04
2018-12-27T04:56:57.490Z,6.08
2018-12-27T04:58:03.419Z,6.11
2018-12-27T04:59:09.304Z,6.13
2018-12-27T05:00:15.216Z,6.15
2018-12-27T05:01:21.145Z,6.18
2018-12-27T05:02:27.084Z,6.23
2018-12-27T05:03:33.066Z,6.06
2018-12-27T05:04:39.637Z,6.19
2018-12-27T05:05:45.686Z,6.14
2018-12-27T05:06:51.728Z,6.15
2018-12-27T05:07:57.729Z,6.06
2018-12-27T05:09:03.085Z,5.97
2018-12-27T05:10:08.686Z,5.94
2018-12-27T05:11:14.645Z,5.84
2018-12-27T05:12:20.560Z,5.70
2018-12-27T05:13:26.465Z,5.73
2018-12-27T05:14:32.381Z,5.87
2018-12-27T05:15:38.321Z,5.87
2018-12-27T05:16:44.196Z,6.01
2018-12-27T05:17:50.121Z,5.98
2018-12-27T05:18:56.083Z,6.06
2018-12-27T05:20:02.009Z,5.97
2018-12-27T05:21:07.971Z,5.95
2018-12-27T05:22:13.909Z,6.13
2018-12-27T05:23:19.850Z,6.07
2018-12-27T05:24:25.732Z,6.04
2018-12-27T05:25:31.621Z,6.08
2018-12-27T05:26:37.577Z,6.02
2018-12-27T05:27:43.493Z,5.87
2018-12-27T05:28:49.406Z,5.88
2018-12-27T05:29:55.380Z,5.83
2018-12-27T05:31:01.293Z,5.79
2018-12-27T05:32:07.237Z,5.71
2018-12-27T05:33:13.167Z,5.86
2018-12-27T05:34:25.982Z,5.89
2018-12-27T05:35:25.140Z,6.02
2018-12-27T05:36:31.136Z,6.01
2018-12-27T05:37:37.085Z,5.87
2018-12-27T05:38:42.995Z,6.04
2018-12-27T05:39:48.916Z,6.10
2018-12-27T05:40:54.853Z,6.07
2018-12-27T05:42:00.815Z,5.96
2018-12-27T05:43:06.707Z,5.97
2018-12-27T05:44:12.914Z,5.88
2018-12-27T05:45:18.832Z,5.97
2018-12-27T05:46:24.738Z,6.06
2018-12-27T05:47:30.634Z,5.97
2018-12-27T05:48:36.682Z,5.86
2018-12-27T05:49:43.222Z,5.99
2018-12-27T05:50:49.093Z,5.87
2018-12-27T05:51:55.041Z,5.81
2018-12-27T05:53:00.975Z,5.86
2018-12-27T05:54:06.892Z,5.85
2018-12-27T05:55:12.422Z,5.96
2018-12-27T05:56:18.344Z,6.15
2018-12-27T05:57:24.271Z,6.02
2018-12-27T05:58:30.193Z,6.06
2018-12-27T05:59:36.194Z,6.14
2018-12-27T06:00:42.105Z,6.10
2018-12-27T06:01:48.029Z,6.07
2018-12-27T06:02:53.975Z,6.19
2018-12-27T06:03:59.948Z,6.03
2018-12-27T06:05:05.870Z,5.90
2018-12-27T06:06:11.776Z,6.05
2018-12-27T06:07:17.698Z,5.96
2018-12-27T06:08:23.615Z,5.69
2018-12-27T06:09:29.585Z,5.53
2018-12-27T06:10:35.566Z,5.64
2018-12-27T06:11:42.330Z,5.72
2018-12-27T06:12:48.274Z,5.66
2018-12-27T06:13:54.221Z,5.68
2018-12-27T06:15:00.195Z,5.59
2018-12-27T06:16:06.176Z,5.74
2018-12-27T06:17:12.140Z,5.78
2018-12-27T06:18:18.061Z,5.80
2018-12-27T06:19:24.030Z,5.87
2018-12-27T06:20:29.982Z,5.92
2018-12-27T06:21:35.954Z,5.86
2018-12-27T06:22:42.005Z,5.91
2018-12-27T06:23:47.933Z,5.95
2018-12-27T06:24:53.858Z,5.82
2018-12-27T06:25:59.436Z,5.76
2018-12-27T06:27:05.430Z,5.89
2018-12-27T06:28:11.366Z,5.68
2018-12-27T06:29:17.380Z,5.67
2018-12-27T06:30:23.259Z,5.67
2018-12-27T06:31:30.757Z,5.52
2018-12-27T06:32:37.585Z,5.39
2018-12-27T06:33:43.583Z,5.40
2018-12-27T06:34:49.566Z,5.36
2018-12-27T06:35:55.668Z,5.49
2018-12-27T06:37:01.763Z,5.57
2018-12-27T06:38:07.754Z,5.50
2018-12-27T06:39:13.754Z,5.53
2018-12-27T06:40:19.811Z,5.65
2018-12-27T06:41:25.920Z,5.77
2018-12-27T06:42:32.000Z,5.88
2018-12-27T06:43:38.051Z,5.94
2018-12-27T06:44:44.051Z,5.78
2018-12-27T06:45:50.157Z,5.80
2018-12-27T06:46:56.189Z,5.64
2018-12-27T06:48:02.205Z,5.77
2018-12-27T06:49:08.227Z,5.64
2018-12-27T06:50:14.127Z,5.59
2018-12-27T06:51:20.741Z,5.42
2018-12-27T06:52:27.437Z,5.45
2018-12-27T06:53:34.306Z,5.54
2018-12-27T06:54:40.265Z,5.40
2018-12-27T06:55:46.183Z,5.54
2018-12-27T06:56:52.163Z,5.58
2018-12-27T06:57:58.649Z,5.30
2018-12-27T06:59:04.806Z,5.32
2018-12-27T07:00:10.745Z,5.21
2018-12-27T07:01:16.669Z,5.47
2018-12-27T07:02:22.635Z,5.34
2018-12-27T07:03:29.817Z,5.34
2018-12-27T07:04:35.757Z,5.51
2018-12-27T07:05:41.765Z,5.59
2018-12-27T07:06:47.676Z,5.55
2018-12-27T07:07:54.178Z,5.36
2018-12-27T07:09:01.542Z,5.47
2018-12-27T07:10:07.113Z,5.19
2018-12-27T07:11:14.468Z,5.03
2018-12-27T07:12:21.056Z,4.99
2018-12-27T07:13:27.057Z,5.10
2018-12-27T07:14:33.502Z,4.94
2018-12-27T07:15:39.560Z,4.95
2018-12-27T07:16:46.289Z,5.11
2018-12-27T07:17:52.883Z,5.33
2018-12-27T07:18:58.857Z,5.27
2018-12-27T07:20:04.173Z,5.05
2018-12-27T07:21:10.831Z,5.10
2018-12-27T07:22:17.353Z,5.21
2018-12-27T07:23:23.289Z,5.12
2018-12-27T07:24:29.208Z,4.93
2018-12-27T07:25:35.855Z,4.80
2018-12-27T07:26:42.349Z,4.88
2018-12-27T07:27:49.664Z,4.75
2018-12-27T07:28:56.570Z,4.77
2018-12-27T07:30:04.316Z,4.73
2018-12-27T07:31:11.580Z,4.95
2018-12-27T07:32:18.548Z,5.05
2018-12-27T07:33:25.679Z,4.86
2018-12-27T07:34:32.680Z,4.94
2018-12-27T07:35:39.175Z,4.89
2018-12-27T07:36:45.303Z,4.89
2018-12-27T07:37:51.272Z,5.24
2018-12-27T07:38:58.582Z,5.25
2018-12-27T07:40:05.765Z,4.98
2018-12-27T07:41:12.142Z,4.94
2018-12-27T07:42:18.967Z,4.93
2018-12-27T07:43:25.444Z,4.97
2018-12-27T07:44:31.987Z,5.10
2018-12-27T07:45:39.052Z,5.10
2018-12-27T07:46:47.219Z,4.94
2018-12-27T07:47:57.654Z,4.86
2018-12-27T07:49:04.416Z,5.02
2018-12-27T07:50:12.311Z,5.14
2018-12-27T07:51:19.502Z,5.18
2018-12-27T07:52:27.472Z,5.09
2018-12-27T07:53:34.615Z,5.06
2018-12-27T07:54:41.692Z,5.00
2018-12-27T07:55:47.608Z,4.87
2018-12-27T07:56:53.537Z,4.83
2018-12-27T07:57:59.488Z,4.92
2018-12-27T07:59:05.377Z,4.88
2018-12-27T08:00:10.964Z,4.71
2018-12-27T08:01:16.899Z,4.73
2018-12-27T08:02:22.840Z,4.88
2018-12-27T08:03:28.801Z,4.75
2018-12-27T08:04:34.791Z,4.77
2018-12-27T08:05:40.718Z,4.73
2018-12-27T08:06:46.682Z,4.79
2018-12-27T08:07:52.617Z,4.68
2018-12-27T08:08:58.584Z,4.79
2018-12-27T08:10:05.645Z,5.04
2018-12-27T08:11:12.558Z,4.93
2018-12-27T08:12:20.356Z,4.95
2018-12-27T08:13:27.218Z,4.93
2018-12-27T08:14:34.529Z,5.00
2018-12-27T08:15:42.407Z,4.91
2018-12-27T08:16:49.632Z,4.92
2018-12-27T08:17:56.716Z,4.98
2018-12-27T08:19:04.718Z,5.03
2018-12-27T08:20:11.657Z,4.89
2018-12-27T08:21:18.641Z,4.99
2018-12-27T08:22:25.753Z,4.87
2018-12-27T08:23:32.849Z,4.93
2018-12-27T08:24:40.230Z,4.89
2018-12-27T08:25:47.363Z,5.07
2018-12-27T08:26:55.520Z,4.87
2018-12-27T08:28:04.200Z,4.75
2018-12-27T08:29:13.132Z,5.00
2018-12-27T08:30:21.022Z,4.88
2018-12-27T08:31:28.345Z,4.96
2018-12-27T08:32:35.361Z,5.02
2018-12-27T08:33:42.621Z,4.90
2018-12-27T08:34:51.136Z,4.94
2018-12-27T08:35:58.185Z,4.87
2018-12-27T08:37:05.417Z,4.89
2018-12-27T08:38:12.293Z,4.86
2018-12-27T08:39:19.346Z,4.93
2018-12-27T08:40:26.802Z,4.76
2018-12-27T08:41:33.796Z,4.85
2018-12-27T08:42:41.830Z,4.92
2018-12-27T08:43:49.008Z,4.92
2018-12-27T08:44:55.863Z,4.86
2018-12-27T08:46:02.734Z,4.83
2018-12-27T08:47:09.635Z,4.66
2018-12-27T08:48:16.623Z,4.45
2018-12-27T08:49:24.255Z,4.45
2018-12-27T08:50:31.358Z,4.62
2018-12-27T08:51:38.295Z,4.67
2018-12-27T08:52:46.049Z,4.75
2018-12-27T08:53:54.457Z,4.85
2018-12-27T08:55:00.928Z,4.73
2018-12-27T08:56:06.883Z,4.60
2018-12-27T08:57:12.841Z,4.61
2018-12-27T08:58:18.808Z,4.61
2018-12-27T08:59:24.776Z,4.51
2018-12-27T09:00:30.765Z,4.52
2018-12-27T09:01:36.680Z,4.60
2018-12-27T09:02:43.011Z,4.59
2018-12-27T09:03:49.058Z,4.62
2018-12-27T09:04:55.004Z,4.77
2018-12-27T09:06:00.940Z,4.73
2018-12-27T09:07:06.871Z,4.83
2018-12-27T09:08:12.818Z,4.87
2018-12-27T09:09:18.801Z,4.85
2018-12-27T09:10:25.572Z,4.90
2018-12-27T09:11:31.519Z,4.77
2018-12-27T09:12:37.486Z,4.81
2018-12-27T09:13:43.511Z,4.94
2018-12-27T09:14:49.437Z,4.85
2018-12-27T09:15:55.386Z,4.99
2018-12-27T09:17:01.333Z,4.88
2018-12-27T09:18:07.332Z,4.81
2018-12-27T09:19:13.330Z,4.97
2018-12-27T09:20:19.337Z,4.91
2018-12-27T09:21:25.232Z,4.94
2018-12-27T09:22:31.339Z,4.88
2018-12-27T09:23:37.294Z,5.07
2018-12-27T09:24:43.287Z,5.28
2018-12-27T09:25:49.251Z,5.37
2018-12-27T09:26:55.165Z,5.33
2018-12-27T09:28:01.329Z,5.30
2018-12-27T09:29:07.523Z,5.29
2018-12-27T09:30:13.079Z,5.36
2018-12-27T09:31:19.073Z,5.37
2018-12-27T09:32:25.018Z,5.30
2018-12-27T09:33:31.029Z,5.33
2018-12-27T09:34:37.307Z,5.20
2018-12-27T09:35:43.343Z,5.27
2018-12-27T09:36:50.384Z,5.45
2018-12-27T09:37:55.280Z,5.52
2018-12-27T09:39:00.874Z,5.45
2018-12-27T09:40:06.445Z,5.54
2018-12-27T09:41:12.483Z,5.39
2018-12-27T09:42:18.388Z,5.36
2018-12-27T09:43:24.360Z,5.43
2018-12-27T09:44:30.341Z,5.48
2018-12-27T09:45:36.273Z,5.52
2018-12-27T09:46:42.251Z,5.63
2018-12-27T09:47:48.219Z,5.55
2018-12-27T09:48:54.156Z,5.75
2018-12-27T09:50:00.137Z,5.78
2018-12-27T09:51:06.118Z,5.86
2018-12-27T09:52:12.059Z,5.79
2018-12-27T09:53:17.985Z,5.89
2018-12-27T09:54:23.893Z,5.91
2018-12-27T09:55:29.501Z,5.90
2018-12-27T09:56:35.637Z,5.89
2018-12-27T09:57:41.594Z,5.83
2018-12-27T09:58:47.599Z,5.83
2018-12-27T09:59:53.542Z,5.88
2018-12-27T10:00:59.474Z,5.94
2018-12-27T10:02:05.409Z,5.82
2018-12-27T10:03:11.401Z,5.98
2018-12-27T10:04:17.352Z,5.90
2018-12-27T10:05:23.310Z,6.07
2018-12-27T10:06:29.260Z,6.11
2018-12-27T10:07:35.163Z,6.14
2018-12-27T10:08:41.080Z,6.16
2018-12-27T10:09:47.019Z,6.19
2018-12-27T10:10:52.942Z,6.23
2018-12-27T10:11:58.892Z,6.27
2018-12-27T10:13:04.875Z,6.35
2018-12-27T10:14:10.818Z,6.33
2018-12-27T10:15:16.718Z,6.30
2018-12-27T10:16:22.606Z,6.48
2018-12-27T10:17:28.512Z,6.46
2018-12-27T10:18:34.473Z,6.52
2018-12-27T10:19:40.392Z,6.33
2018-12-27T10:20:47.116Z,6.45
2018-12-27T10:21:53.087Z,6.56
2018-12-27T10:22:59.033Z,6.69
2018-12-27T10:24:04.641Z,6.79
2018-12-27T10:25:10.608Z,6.72
2018-12-27T10:26:16.595Z,6.82
2018-12-27T10:27:22.524Z,6.85
2018-12-27T10:28:28.516Z,6.66
2018-12-27T10:29:34.485Z,6.63
2018-12-27T10:30:40.428Z,6.65
2018-12-27T10:31:46.380Z,6.47
2018-12-27T10:32:52.326Z,6.59
2018-12-27T10:33:58.225Z,6.69
2018-12-27T10:35:03.511Z,6.77
2018-12-27T10:36:09.440Z,6.83
2018-12-27T10:37:15.342Z,6.63
2018-12-27T10:38:21.337Z,6.55
2018-12-27T10:39:27.316Z,6.58
2018-12-27T10:40:33.256Z,6.55
2018-12-27T10:41:39.197Z,6.61
2018-12-27T10:42:45.077Z,6.75
2018-12-27T10:43:50.980Z,6.85
2018-12-27T10:44:56.899Z,6.92
2018-12-27T10:46:02.824Z,6.85
2018-12-27T10:47:08.377Z,6.96
2018-12-27T10:48:14.328Z,6.91
2018-12-27T10:49:20.242Z,6.77
2018-12-27T10:50:26.456Z,7.01
2018-12-27T10:51:32.460Z,7.05
2018-12-27T10:52:38.374Z,6.97
2018-12-27T10:53:44.292Z,7.00
2018-12-27T10:54:50.560Z,6.87
2018-12-27T10:55:56.572Z,6.85
2018-12-27T10:57:02.461Z,6.73
2018-12-27T10:58:08.414Z,6.85
2018-12-27T10:59:14.398Z,7.08
2018-12-27T11:00:20.406Z,6.97
2018-12-27T11:01:26.324Z,6.82
2018-12-27T11:02:32.240Z,6.89
2018-12-27T11:03:38.150Z,7.16
2018-12-27T11:04:44.108Z,7.27
2018-12-27T11:05:49.723Z,7.24
2018-12-27T11:06:55.331Z,7.11
2018-12-27T11:08:01.241Z,7.21
2018-12-27T11:09:06.465Z,7.23
2018-12-27T11:10:12.482Z,7.27
2018-12-27T11:11:18.435Z,7.30
2018-12-27T11:12:24.302Z,7.24
2018-12-27T11:13:30.157Z,7.11
2018-12-27T11:14:36.081Z,6.96
2018-12-27T11:15:42.137Z,6.88
2018-12-27T11:16:48.073Z,7.16
2018-12-27T11:17:53.994Z,7.15
2018-12-27T11:18:59.951Z,7.07
2018-12-27T11:20:05.204Z,7.12
2018-12-27T11:21:11.146Z,7.22
2018-12-27T11:22:17.081Z,7.32
2018-12-27T11:23:22.996Z,7.04
2018-12-27T11:24:28.946Z,6.97
2018-12-27T11:25:34.910Z,6.98
2018-12-27T11:26:40.764Z,6.84
2018-12-27T11:27:46.673Z,7.07
2018-12-27T11:28:52.598Z,7.31
2018-12-27T11:29:58.518Z,7.10
2018-12-27T11:31:04.470Z,7.00
2018-12-27T11:32:10.358Z,7.03
2018-12-27T11:33:16.246Z,6.94
2018-12-27T11:34:22.146Z,7.01
2018-12-27T11:35:28.075Z,7.05
2018-12-27T11:36:33.987Z,7.14
2018-12-27T11:37:39.932Z,7.36
2018-12-27T11:38:46.654Z,7.45
2018-12-27T11:39:52.592Z,7.27
2018-12-27T11:40:58.522Z,7.33
2018-12-27T11:42:04.485Z,7.07
2018-12-27T11:43:10.406Z,7.04
2018-12-27T11:44:16.312Z,7.10
2018-12-27T11:45:22.244Z,7.13
2018-12-27T11:46:28.150Z,7.32
2018-12-27T11:47:34.037Z,7.39
2018-12-27T11:48:39.946Z,7.14
2018-12-27T11:49:45.931Z,6.97
2018-12-27T11:50:51.881Z,6.82
2018-12-27T11:51:57.852Z,6.91
2018-12-27T11:53:03.775Z,6.93
2018-12-27T11:54:09.709Z,7.14
2018-12-27T11:55:15.590Z,7.11
2018-12-27T11:56:21.548Z,7.26
2018-12-27T11:57:27.466Z,7.32
2018-12-27T11:58:33.385Z,7.23
2018-12-27T11:59:39.394Z,7.19
2018-12-27T12:00:45.304Z,7.17
2018-12-27T12:01:51.258Z,7.12
2018-12-27T12:02:58.835Z,7.27
2018-12-27T12:04:03.141Z,7.34
2018-12-27T12:05:08.376Z,7.28
2018-12-27T12:06:14.349Z,7.38
2018-12-27T12:07:20.269Z,7.34
2018-12-27T12:08:26.157Z,7.44
2018-12-27T12:09:32.067Z,7.45
2018-12-27T12:10:38.034Z,7.44
2018-12-27T12:11:43.973Z,7.52
2018-12-27T12:12:49.882Z,7.50
2018-12-27T12:13:55.819Z,7.42
2018-12-27T12:15:01.797Z,7.32
2018-12-27T12:16:07.719Z,7.41
2018-12-27T12:17:13.626Z,7.39
2018-12-27T12:18:19.610Z,7.34
2018-12-27T12:19:25.581Z,7.40
2018-12-27T12:20:31.506Z,7.31
2018-12-27T12:21:37.476Z,7.32
2018-12-27T12:22:43.458Z,7.38
2018-12-27T12:23:49.349Z,7.33
2018-12-27T12:24:55.344Z,7.21
2018-12-27T12:26:01.272Z,7.31
2018-12-27T12:27:07.206Z,7.27
2018-12-27T12:28:13.083Z,7.31
2018-12-27T12:29:19.006Z,7.47
2018-12-27T12:30:24.937Z,7.48
2018-12-27T12:31:30.863Z,7.39
2018-12-27T12:32:36.792Z,7.32
2018-12-27T12:33:42.681Z,7.45
2018-12-27T12:34:48.280Z,7.46
2018-12-27T12:35:54.194Z,7.51
2018-12-27T12:36:59.433Z,7.57
2018-12-27T12:38:05.359Z,7.65
2018-12-27T12:39:11.323Z,7.62
2018-12-27T12:40:17.259Z,7.66
2018-12-27T12:41:23.167Z,7.54
2018-12-27T12:42:32.706Z,7.53
2018-12-27T12:43:34.989Z,7.51
2018-12-27T12:44:40.990Z,7.42
2018-12-27T12:45:46.922Z,7.51
2018-12-27T12:46:53.168Z,7.51
2018-12-27T12:47:58.376Z,7.43
2018-12-27T12:49:04.313Z,7.38
2018-12-27T12:50:09.578Z,7.40
2018-12-27T12:51:15.501Z,7.48
2018-12-27T12:52:21.441Z,7.53
2018-12-27T12:53:27.380Z,7.45
2018-12-27T12:54:33.276Z,7.31
2018-12-27T12:55:39.182Z,7.32
2018-12-27T12:56:45.129Z,7.39
2018-12-27T12:57:51.081Z,7.29
2018-12-27T12:58:57.009Z,7.34
2018-12-27T13:00:02.941Z,7.57
2018-12-27T13:01:08.882Z,7.46
2018-12-27T13:02:14.810Z,7.58
2018-12-27T13:03:20.775Z,7.46
2018-12-27T13:04:26.695Z,7.58
2018-12-27T13:05:32.628Z,7.66
2018-12-27T13:06:38.541Z,7.71
2018-12-27T13:07:44.488Z,7.69
2018-12-27T13:08:50.429Z,7.61
2018-12-27T13:09:56.346Z,7.68
2018-12-27T13:11:02.208Z,7.52
2018-12-27T13:12:08.102Z,7.47
2018-12-27T13:13:14.085Z,7.48
2018-12-27T13:14:20.024Z,7.56
2018-12-27T13:15:25.950Z,7.59
2018-12-27T13:16:31.862Z,7.58
2018-12-27T13:17:37.761Z,7.68
2018-12-27T13:18:47.278Z,7.79
2018-12-27T13:19:49.605Z,7.73
2018-12-27T13:20:55.259Z,7.80
2018-12-27T13:22:01.134Z,7.73
2018-12-27T13:23:07.102Z,7.84
2018-12-27T13:24:13.733Z,7.87
2018-12-27T13:25:20.066Z,7.71
2018-12-27T13:26:25.654Z,7.81
2018-12-27T13:27:31.534Z,7.60
2018-12-27T13:28:37.512Z,7.41
2018-12-27T13:29:43.546Z,7.38
2018-12-27T13:30:49.424Z,7.36
2018-12-27T13:31:55.367Z,7.54
2018-12-27T13:33:04.181Z,7.60
2018-12-27T13:34:10.074Z,7.50
2018-12-27T13:35:16.013Z,7.41
2018-12-27T13:36:25.337Z,7.57
2018-12-27T13:37:27.848Z,7.81
2018-12-27T13:38:33.838Z,7.84
2018-12-27T13:39:39.719Z,7.81
2018-12-27T13:40:45.637Z,7.73
2018-12-27T13:41:51.546Z,7.91
2018-12-27T13:42:57.430Z,7.82
2018-12-27T13:44:03.404Z,7.78
2018-12-27T13:45:08.997Z,7.59
2018-12-27T13:46:14.951Z,7.32
2018-12-27T13:47:20.890Z,7.22
2018-12-27T13:48:26.897Z,7.14
2018-12-27T13:49:32.813Z,7.22
2018-12-27T13:50:38.754Z,7.32
2018-12-27T13:51:44.662Z,7.55
2018-12-27T13:52:50.673Z,7.62
2018-12-27T13:53:56.626Z,7.55
2018-12-27T13:55:02.594Z,7.38
2018-12-27T13:56:08.497Z,7.12
2018-12-27T13:57:14.409Z,7.24
2018-12-27T13:58:20.332Z,7.17
2018-12-27T13:59:26.301Z,7.33
2018-12-27T14:00:32.267Z,7.28
2018-12-27T14:01:38.187Z,7.17
2018-12-27T14:02:44.128Z,7.25
2018-12-27T14:03:50.133Z,7.26
2018-12-27T14:04:56.041Z,7.43
2018-12-27T14:06:02.036Z,7.60
2018-12-27T14:07:08.015Z,7.43
2018-12-27T14:08:13.942Z,7.30
2018-12-27T14:09:19.904Z,7.30
2018-12-27T14:10:25.825Z,7.34
2018-12-27T14:11:31.749Z,7.36
2018-12-27T14:12:37.730Z,7.37
2018-12-27T14:13:45.195Z,7.07
2018-12-27T14:14:49.717Z,6.98
2018-12-27T14:15:55.621Z,7.22
2018-12-27T14:17:01.513Z,7.14
2018-12-27T14:18:07.436Z,7.08
2018-12-27T14:19:13.390Z,6.99
2018-12-27T14:20:19.361Z,6.89
2018-12-27T14:21:25.281Z,6.88
2018-12-27T14:22:31.211Z,6.89
2018-12-27T14:23:37.155Z,6.83
2018-12-27T14:24:43.093Z,6.75
2018-12-27T14:25:49.030Z,6.76
2018-12-27T14:26:54.998Z,6.80
2018-12-27T14:28:00.987Z,6.83
2018-12-27T14:29:06.918Z,6.98
2018-12-27T14:30:12.865Z,6.89
2018-12-27T14:31:18.778Z,6.87
2018-12-27T14:32:24.706Z,6.98
2018-12-27T14:33:30.645Z,6.85
2018-12-27T14:34:36.596Z,6.66
2018-12-27T14:35:42.491Z,6.50
2018-12-27T14:36:48.435Z,6.63
2018-12-27T14:37:54.328Z,6.50
2018-12-27T14:39:00.293Z,6.43
2018-12-27T14:40:05.528Z,6.44